CKK8667 ZYHB-ZGGG
Flight info
| Callsign | CKK8667 |
|---|---|
| Flight time | N/A |
| Altitude | 34100 |
| Route | LEG19D LEGAG W204 RUSBO G212 BUMDU W47 ASAVA W45 LYA W45 ML W45 NUPTI W45 VESUX W45 IKAVO IKAVO8 |
| Aircraft | B77L/H-SDE1E2E3FGHIJ2J3J4J5M1RWXY/LB1D1 |
Departure
| Time | N/A |
|---|---|
| Airport | Harbin Taiping International Airport (ZYHB) |
Arrival
| Time | 2026-05-06 04:27 |
|---|---|
| Airport | Guangzhou Baiyun International Airport (ZGGG) |
| Time | Latitude | Longitude | Altitude | Speed | Heading |
|---|---|---|---|---|---|
| 2026-05-06 01:58 | 38.69994 | 113.94951 | 33792 ft | 450 kts | 202° |
| 2026-05-06 01:59 | 38.63932 | 113.92814 | 33770 ft | 452 kts | 202° |
| 2026-05-06 01:59 | 38.57862 | 113.90690 | 33753 ft | 453 kts | 202° |
| 2026-05-06 02:00 | 38.51772 | 113.88566 | 33771 ft | 454 kts | 202° |
| 2026-05-06 02:00 | 38.45655 | 113.86425 | 33758 ft | 457 kts | 201° |
| 2026-05-06 02:01 | 38.39490 | 113.84274 | 33756 ft | 461 kts | 202° |
| 2026-05-06 02:01 | 38.33278 | 113.82112 | 33745 ft | 467 kts | 202° |
| 2026-05-06 02:02 | 38.26937 | 113.79912 | 33750 ft | 477 kts | 202° |
| 2026-05-06 02:02 | 38.20488 | 113.77683 | 33726 ft | 484 kts | 202° |
| 2026-05-06 02:03 | 38.20313 | 113.77623 | 33731 ft | 484 kts | 202° |
| 2026-05-06 02:13 | 38.19610 | 113.77381 | 33769 ft | 484 kts | 202° |
| 2026-05-06 02:14 | 38.13102 | 113.75143 | 33754 ft | 489 kts | 202° |
| 2026-05-06 02:14 | 38.06494 | 113.72871 | 33765 ft | 494 kts | 202° |
| 2026-05-06 02:15 | 37.99838 | 113.70586 | 33774 ft | 498 kts | 202° |
| 2026-05-06 02:15 | 37.97930 | 113.69932 | 33767 ft | 499 kts | 202° |
| 2026-05-06 02:16 | 37.91217 | 113.67633 | 33767 ft | 500 kts | 202° |
| 2026-05-06 02:16 | 37.84521 | 113.65353 | 33769 ft | 496 kts | 202° |
| 2026-05-06 02:17 | 37.77901 | 113.63100 | 33756 ft | 491 kts | 202° |
| 2026-05-06 02:17 | 37.71314 | 113.60850 | 33772 ft | 489 kts | 202° |
| 2026-05-06 02:18 | 37.64772 | 113.58620 | 33780 ft | 488 kts | 202° |
| 2026-05-06 02:18 | 37.58209 | 113.56390 | 33784 ft | 488 kts | 202° |
| 2026-05-06 02:19 | 37.51711 | 113.54186 | 33788 ft | 489 kts | 202° |
| 2026-05-06 02:19 | 37.45076 | 113.51943 | 33793 ft | 490 kts | 202° |
| 2026-05-06 02:20 | 37.35185 | 113.48607 | 33806 ft | 491 kts | 201° |
| 2026-05-06 02:21 | 37.28571 | 113.46380 | 33809 ft | 492 kts | 201° |
| 2026-05-06 02:21 | 37.21955 | 113.44157 | 33818 ft | 493 kts | 201° |
| 2026-05-06 02:22 | 37.15446 | 113.41973 | 33812 ft | 493 kts | 201° |
| 2026-05-06 02:22 | 37.08823 | 113.39756 | 33815 ft | 493 kts | 201° |
| 2026-05-06 02:23 | 37.02192 | 113.37541 | 33811 ft | 493 kts | 201° |
| 2026-05-06 02:23 | 36.95634 | 113.35353 | 33803 ft | 493 kts | 201° |
| 2026-05-06 02:24 | 36.89004 | 113.33144 | 33805 ft | 493 kts | 201° |
| 2026-05-06 02:24 | 36.82423 | 113.30956 | 33809 ft | 493 kts | 201° |
| 2026-05-06 02:25 | 36.75799 | 113.28759 | 33800 ft | 492 kts | 201° |
| 2026-05-06 02:25 | 36.69191 | 113.26569 | 33804 ft | 492 kts | 201° |
| 2026-05-06 02:26 | 36.62567 | 113.24379 | 33806 ft | 492 kts | 201° |
| 2026-05-06 02:26 | 36.58419 | 113.23009 | 33803 ft | 492 kts | 201° |
| 2026-05-06 02:27 | 36.51818 | 113.20832 | 33827 ft | 491 kts | 201° |
| 2026-05-06 02:27 | 36.45199 | 113.18654 | 33811 ft | 491 kts | 201° |
| 2026-05-06 02:28 | 36.38589 | 113.16482 | 33810 ft | 492 kts | 201° |
| 2026-05-06 02:28 | 36.31978 | 113.14312 | 33804 ft | 491 kts | 201° |
| 2026-05-06 02:29 | 36.25368 | 113.12135 | 33806 ft | 490 kts | 202° |
| 2026-05-06 02:29 | 36.19045 | 113.09209 | 33821 ft | 483 kts | 209° |
| 2026-05-06 02:30 | 36.12862 | 113.05906 | 33809 ft | 484 kts | 209° |
| 2026-05-06 02:30 | 36.06676 | 113.02641 | 33815 ft | 484 kts | 209° |
| 2026-05-06 02:31 | 36.00460 | 112.99399 | 33813 ft | 485 kts | 208° |
| 2026-05-06 02:31 | 35.97644 | 112.97935 | 33825 ft | 486 kts | 208° |
| 2026-05-06 02:34 | 35.97141 | 112.97673 | 33815 ft | 486 kts | 208° |
| 2026-05-06 02:34 | 35.90903 | 112.94432 | 33819 ft | 486 kts | 208° |
| 2026-05-06 02:35 | 35.84665 | 112.91192 | 33805 ft | 487 kts | 208° |
| 2026-05-06 02:35 | 35.78413 | 112.87952 | 33803 ft | 487 kts | 208° |
| 2026-05-06 02:36 | 35.72214 | 112.84728 | 33807 ft | 487 kts | 208° |
| 2026-05-06 02:36 | 35.65928 | 112.81454 | 33807 ft | 487 kts | 208° |
| 2026-05-06 02:37 | 35.59720 | 112.78230 | 33807 ft | 488 kts | 208° |
| 2026-05-06 02:37 | 35.53472 | 112.74981 | 33811 ft | 488 kts | 208° |
| 2026-05-06 02:38 | 35.47207 | 112.71713 | 33807 ft | 488 kts | 208° |
| 2026-05-06 02:38 | 35.40950 | 112.68456 | 33789 ft | 489 kts | 208° |
| 2026-05-06 02:39 | 35.34947 | 112.65337 | 33784 ft | 489 kts | 208° |
| 2026-05-06 02:39 | 35.29739 | 112.62636 | 33784 ft | 489 kts | 208° |
| 2026-05-06 02:40 | 35.23474 | 112.59389 | 33802 ft | 488 kts | 208° |
| 2026-05-06 02:40 | 35.16193 | 112.55646 | 33787 ft | 489 kts | 208° |
| 2026-05-06 02:41 | 35.09868 | 112.52532 | 33774 ft | 492 kts | 204° |
| 2026-05-06 02:41 | 35.04358 | 112.50484 | 33773 ft | 495 kts | 202° |
| 2026-05-06 02:42 | 34.97739 | 112.48111 | 33775 ft | 496 kts | 202° |
| 2026-05-06 02:42 | 34.91116 | 112.45697 | 33780 ft | 497 kts | 202° |
| 2026-05-06 02:43 | 34.84536 | 112.43280 | 33773 ft | 498 kts | 202° |
| 2026-05-06 02:43 | 34.77859 | 112.40957 | 33778 ft | 502 kts | 197° |
| 2026-05-06 02:44 | 34.70897 | 112.39934 | 33787 ft | 510 kts | 187° |
| 2026-05-06 02:44 | 34.63740 | 112.40257 | 33780 ft | 516 kts | 181° |
| 2026-05-06 02:45 | 34.56571 | 112.40957 | 33782 ft | 517 kts | 180° |
| 2026-05-06 02:45 | 34.49403 | 112.41633 | 33780 ft | 517 kts | 181° |
| 2026-05-06 02:46 | 34.42234 | 112.42261 | 33781 ft | 516 kts | 181° |
| 2026-05-06 02:46 | 34.35070 | 112.42869 | 33788 ft | 516 kts | 181° |
| 2026-05-06 02:47 | 34.27901 | 112.43478 | 33787 ft | 515 kts | 180° |
| 2026-05-06 02:47 | 34.20767 | 112.44085 | 33788 ft | 515 kts | 180° |
| 2026-05-06 02:48 | 34.13604 | 112.44695 | 33790 ft | 515 kts | 180° |
| 2026-05-06 02:48 | 34.06512 | 112.45299 | 33793 ft | 514 kts | 180° |
| 2026-05-06 02:49 | 33.99370 | 112.45905 | 33799 ft | 514 kts | 180° |
| 2026-05-06 02:49 | 33.92230 | 112.46509 | 33805 ft | 514 kts | 180° |
| 2026-05-06 02:50 | 33.85113 | 112.47112 | 33798 ft | 514 kts | 180° |
| 2026-05-06 02:50 | 33.77951 | 112.47717 | 33806 ft | 514 kts | 180° |
| 2026-05-06 02:51 | 33.70830 | 112.48317 | 33810 ft | 514 kts | 180° |
| 2026-05-06 02:51 | 33.63691 | 112.48919 | 33814 ft | 514 kts | 180° |
| 2026-05-06 02:52 | 33.56552 | 112.49524 | 33825 ft | 514 kts | 180° |
| 2026-05-06 02:52 | 33.49408 | 112.50132 | 33813 ft | 514 kts | 180° |
| 2026-05-06 02:53 | 33.42287 | 112.50737 | 33829 ft | 513 kts | 180° |
| 2026-05-06 02:53 | 33.35157 | 112.51341 | 33823 ft | 513 kts | 180° |
| 2026-05-06 02:54 | 33.28072 | 112.51939 | 33816 ft | 513 kts | 180° |
| 2026-05-06 02:54 | 33.20952 | 112.52540 | 33825 ft | 513 kts | 180° |
| 2026-05-06 02:55 | 33.13839 | 112.53140 | 33812 ft | 514 kts | 180° |
| 2026-05-06 02:55 | 33.06677 | 112.53743 | 33818 ft | 514 kts | 180° |
| 2026-05-06 02:56 | 32.99536 | 112.54342 | 33820 ft | 515 kts | 180° |
| 2026-05-06 02:56 | 32.92405 | 112.54392 | 33813 ft | 509 kts | 189° |
| 2026-05-06 02:57 | 32.85469 | 112.52960 | 33814 ft | 504 kts | 200° |
| 2026-05-06 02:57 | 32.78852 | 112.50600 | 33811 ft | 504 kts | 200° |
| 2026-05-06 02:58 | 32.72093 | 112.48365 | 33810 ft | 505 kts | 199° |
| 2026-05-06 02:58 | 32.65307 | 112.46192 | 33809 ft | 505 kts | 199° |
| 2026-05-06 02:59 | 32.58511 | 112.44005 | 33808 ft | 506 kts | 199° |
| 2026-05-06 02:59 | 32.51721 | 112.41810 | 33808 ft | 506 kts | 199° |
| 2026-05-06 03:00 | 32.44964 | 112.39623 | 33809 ft | 506 kts | 199° |
| 2026-05-06 03:00 | 32.38170 | 112.37429 | 33803 ft | 506 kts | 199° |
| 2026-05-06 03:01 | 32.31372 | 112.35237 | 33812 ft | 506 kts | 199° |
| 2026-05-06 03:01 | 32.24566 | 112.33047 | 33804 ft | 506 kts | 199° |
| 2026-05-06 03:02 | 32.17779 | 112.30866 | 33804 ft | 506 kts | 199° |
| 2026-05-06 03:02 | 32.10975 | 112.28682 | 33812 ft | 506 kts | 199° |
| 2026-05-06 03:03 | 32.04100 | 112.26793 | 33805 ft | 509 kts | 194° |
| 2026-05-06 03:03 | 31.97108 | 112.25403 | 33808 ft | 509 kts | 193° |
| 2026-05-06 03:04 | 31.90117 | 112.24031 | 33809 ft | 509 kts | 194° |
| 2026-05-06 03:04 | 31.83133 | 112.22626 | 33804 ft | 509 kts | 194° |
| 2026-05-06 03:05 | 31.76141 | 112.21204 | 33813 ft | 509 kts | 194° |
| 2026-05-06 03:05 | 31.69218 | 112.19798 | 33811 ft | 509 kts | 194° |
| 2026-05-06 03:06 | 31.62228 | 112.18383 | 33820 ft | 509 kts | 194° |
| 2026-05-06 03:06 | 31.55246 | 112.16973 | 33818 ft | 509 kts | 194° |
| 2026-05-06 03:07 | 31.48258 | 112.15563 | 33828 ft | 509 kts | 194° |
| 2026-05-06 03:07 | 31.41264 | 112.14154 | 33821 ft | 510 kts | 194° |
| 2026-05-06 03:08 | 31.34305 | 112.12590 | 33837 ft | 508 kts | 197° |
| 2026-05-06 03:08 | 31.27454 | 112.10859 | 33826 ft | 508 kts | 197° |
| 2026-05-06 03:09 | 31.20518 | 112.09119 | 33831 ft | 508 kts | 197° |
| 2026-05-06 03:09 | 31.13723 | 112.07454 | 33825 ft | 507 kts | 197° |
| 2026-05-06 03:10 | 31.06815 | 112.05776 | 33830 ft | 506 kts | 197° |
| 2026-05-06 03:10 | 30.99918 | 112.04103 | 33831 ft | 506 kts | 197° |
| 2026-05-06 03:11 | 30.93042 | 112.02434 | 33834 ft | 505 kts | 197° |
| 2026-05-06 03:11 | 30.86170 | 112.00767 | 33829 ft | 504 kts | 198° |
| 2026-05-06 03:12 | 30.79290 | 111.99101 | 33835 ft | 504 kts | 198° |
| 2026-05-06 03:12 | 30.72996 | 111.97579 | 33830 ft | 504 kts | 198° |
| 2026-05-06 03:13 | 30.66134 | 111.95923 | 33831 ft | 504 kts | 197° |
| 2026-05-06 03:13 | 30.59516 | 111.94329 | 33835 ft | 504 kts | 197° |
| 2026-05-06 03:14 | 30.52640 | 111.92675 | 33834 ft | 505 kts | 197° |
| 2026-05-06 03:14 | 30.47584 | 111.91461 | 33834 ft | 505 kts | 197° |
| 2026-05-06 03:15 | 30.40703 | 111.89809 | 33836 ft | 505 kts | 197° |
| 2026-05-06 03:15 | 30.33804 | 111.88156 | 33833 ft | 506 kts | 197° |
| 2026-05-06 03:16 | 30.26918 | 111.86508 | 33840 ft | 506 kts | 197° |
| 2026-05-06 03:16 | 30.20022 | 111.84859 | 33834 ft | 506 kts | 196° |
| 2026-05-06 03:17 | 30.13180 | 111.83226 | 33845 ft | 506 kts | 196° |
| 2026-05-06 03:17 | 30.06207 | 111.81564 | 33839 ft | 507 kts | 195° |
| 2026-05-06 03:18 | 29.99295 | 111.79919 | 33841 ft | 508 kts | 195° |
| 2026-05-06 03:18 | 29.92363 | 111.78273 | 33848 ft | 509 kts | 195° |
| 2026-05-06 03:19 | 29.85472 | 111.76638 | 33838 ft | 509 kts | 196° |
| 2026-05-06 03:19 | 29.78529 | 111.74993 | 33840 ft | 510 kts | 196° |
| 2026-05-06 03:20 | 29.68114 | 111.72529 | 33844 ft | 509 kts | 196° |
| 2026-05-06 03:20 | 29.61173 | 111.70891 | 33843 ft | 508 kts | 196° |
| 2026-05-06 03:21 | 29.54258 | 111.69260 | 33840 ft | 508 kts | 196° |
| 2026-05-06 03:21 | 29.47325 | 111.67627 | 33848 ft | 507 kts | 197° |
| 2026-05-06 03:22 | 29.40418 | 111.66002 | 33850 ft | 506 kts | 197° |
| 2026-05-06 03:22 | 29.33468 | 111.64629 | 33846 ft | 511 kts | 190° |
| 2026-05-06 03:23 | 29.26381 | 111.64247 | 33852 ft | 514 kts | 187° |
| 2026-05-06 03:23 | 29.19191 | 111.63952 | 33846 ft | 514 kts | 187° |
| 2026-05-06 03:24 | 29.12112 | 111.63611 | 33847 ft | 514 kts | 187° |
| 2026-05-06 03:24 | 29.04952 | 111.63239 | 33859 ft | 515 kts | 187° |
| 2026-05-06 03:25 | 28.97790 | 111.62866 | 33839 ft | 515 kts | 187° |
| 2026-05-06 03:25 | 28.90627 | 111.62499 | 33854 ft | 515 kts | 187° |
| 2026-05-06 03:26 | 28.83452 | 111.62122 | 33847 ft | 515 kts | 188° |
| 2026-05-06 03:26 | 28.76386 | 111.61397 | 33850 ft | 512 kts | 191° |
| 2026-05-06 03:27 | 28.69290 | 111.60517 | 33851 ft | 513 kts | 191° |
| 2026-05-06 03:27 | 28.62146 | 111.59693 | 33847 ft | 513 kts | 191° |
| 2026-05-06 03:28 | 28.55047 | 111.58918 | 33857 ft | 513 kts | 191° |
| 2026-05-06 03:28 | 28.47983 | 111.58148 | 33855 ft | 513 kts | 191° |
| 2026-05-06 03:29 | 28.40880 | 111.57370 | 33856 ft | 513 kts | 190° |
| 2026-05-06 03:29 | 28.34947 | 111.56740 | 33868 ft | 513 kts | 190° |
| 2026-05-06 03:30 | 28.26676 | 111.55873 | 33887 ft | 512 kts | 190° |
| 2026-05-06 03:30 | 28.20773 | 111.55252 | 33886 ft | 512 kts | 190° |
| 2026-05-06 03:31 | 28.13695 | 111.54505 | 33890 ft | 512 kts | 190° |
| 2026-05-06 03:31 | 28.06733 | 111.53771 | 33880 ft | 512 kts | 190° |
| 2026-05-06 03:32 | 27.99644 | 111.53026 | 33890 ft | 511 kts | 190° |
| 2026-05-06 03:32 | 27.95780 | 111.52620 | 33892 ft | 511 kts | 190° |
| 2026-05-06 03:34 | 27.89370 | 111.51947 | 33891 ft | 511 kts | 191° |
| 2026-05-06 03:34 | 27.82294 | 111.51206 | 33895 ft | 511 kts | 190° |
| 2026-05-06 03:35 | 27.75256 | 111.50469 | 33889 ft | 511 kts | 190° |
| 2026-05-06 03:35 | 27.68180 | 111.49728 | 33884 ft | 510 kts | 190° |
| 2026-05-06 03:36 | 27.61124 | 111.48991 | 33895 ft | 509 kts | 190° |
| 2026-05-06 03:36 | 27.54061 | 111.48254 | 33893 ft | 509 kts | 190° |
| 2026-05-06 03:37 | 27.47007 | 111.47521 | 33893 ft | 509 kts | 190° |
| 2026-05-06 03:37 | 27.39949 | 111.46789 | 33902 ft | 510 kts | 190° |
| 2026-05-06 03:38 | 27.32879 | 111.46051 | 33904 ft | 510 kts | 190° |
| 2026-05-06 03:38 | 27.25814 | 111.45317 | 33898 ft | 511 kts | 190° |
| 2026-05-06 03:39 | 27.18735 | 111.44583 | 33893 ft | 511 kts | 190° |
| 2026-05-06 03:39 | 27.11651 | 111.43850 | 33909 ft | 511 kts | 190° |
| 2026-05-06 03:40 | 27.08129 | 111.43486 | 33780 ft | 513 kts | 190° |
| 2026-05-06 03:40 | 27.04622 | 111.43123 | 33838 ft | 510 kts | 190° |
| 2026-05-06 03:40 | 26.97599 | 111.42478 | 33885 ft | 511 kts | 184° |
| 2026-05-06 03:41 | 26.93980 | 111.43101 | 33911 ft | 523 kts | 167° |
| 2026-05-06 03:41 | 26.90678 | 111.44765 | 33912 ft | 534 kts | 152° |
| 2026-05-06 03:41 | 26.87721 | 111.47340 | 33898 ft | 545 kts | 136° |
| 2026-05-06 03:41 | 26.85322 | 111.50640 | 33901 ft | 547 kts | 130° |
| 2026-05-06 03:42 | 26.80802 | 111.57470 | 33881 ft | 552 kts | 129° |
| 2026-05-06 03:42 | 26.76204 | 111.64349 | 33907 ft | 553 kts | 130° |
| 2026-05-06 03:43 | 26.71502 | 111.71184 | 33905 ft | 554 kts | 130° |
| 2026-05-06 03:43 | 26.66760 | 111.77993 | 33906 ft | 555 kts | 131° |
| 2026-05-06 03:44 | 26.62018 | 111.84794 | 33910 ft | 554 kts | 131° |
| 2026-05-06 03:44 | 26.57295 | 111.91571 | 33907 ft | 553 kts | 130° |
| 2026-05-06 03:45 | 26.52599 | 111.98308 | 33913 ft | 553 kts | 130° |
| 2026-05-06 03:45 | 26.48708 | 112.03880 | 33904 ft | 552 kts | 131° |
| 2026-05-06 03:46 | 26.44214 | 112.10305 | 33911 ft | 552 kts | 130° |
| 2026-05-06 03:46 | 26.40253 | 112.15961 | 33918 ft | 552 kts | 130° |
| 2026-05-06 03:47 | 26.36478 | 112.21347 | 33922 ft | 552 kts | 130° |
| 2026-05-06 03:47 | 26.31749 | 112.28083 | 33923 ft | 552 kts | 130° |
| 2026-05-06 03:48 | 26.27014 | 112.34816 | 33933 ft | 552 kts | 131° |
| 2026-05-06 03:48 | 26.22277 | 112.41543 | 33919 ft | 552 kts | 131° |
| 2026-05-06 03:49 | 26.18573 | 112.46796 | 33932 ft | 552 kts | 130° |
| 2026-05-06 03:49 | 26.13795 | 112.53566 | 33938 ft | 553 kts | 130° |
| 2026-05-06 03:50 | 26.09094 | 112.60215 | 33932 ft | 553 kts | 130° |
| 2026-05-06 03:50 | 26.04615 | 112.66540 | 33950 ft | 553 kts | 131° |
| 2026-05-06 03:51 | 25.99951 | 112.73119 | 33945 ft | 554 kts | 130° |
| 2026-05-06 03:51 | 25.95183 | 112.79835 | 33936 ft | 554 kts | 130° |
| 2026-05-06 03:52 | 25.90403 | 112.86557 | 33947 ft | 554 kts | 130° |
| 2026-05-06 03:52 | 25.85627 | 112.93267 | 33949 ft | 554 kts | 130° |
| 2026-05-06 03:53 | 25.81168 | 112.99517 | 33953 ft | 552 kts | 131° |
| 2026-05-06 03:53 | 25.78608 | 113.02407 | 33968 ft | 544 kts | 146° |
| 2026-05-06 03:54 | 25.75400 | 113.04540 | 33968 ft | 536 kts | 161° |
| 2026-05-06 03:54 | 25.71892 | 113.05829 | 33976 ft | 529 kts | 172° |
| 2026-05-06 03:54 | 25.68268 | 113.06245 | 33953 ft | 518 kts | 186° |
| 2026-05-06 03:54 | 25.64682 | 113.06074 | 33979 ft | 517 kts | 187° |
| 2026-05-06 03:55 | 25.57517 | 113.05745 | 33968 ft | 520 kts | 186° |
| 2026-05-06 03:55 | 25.50267 | 113.05510 | 33974 ft | 522 kts | 186° |
| 2026-05-06 03:56 | 25.42994 | 113.05328 | 33985 ft | 523 kts | 186° |
| 2026-05-06 03:56 | 25.36724 | 113.05178 | 33982 ft | 523 kts | 186° |
| 2026-05-06 03:57 | 25.29458 | 113.04998 | 33980 ft | 521 kts | 186° |
| 2026-05-06 03:57 | 25.22217 | 113.04815 | 33981 ft | 520 kts | 186° |
| 2026-05-06 03:58 | 25.14991 | 113.04632 | 33982 ft | 519 kts | 186° |
| 2026-05-06 03:58 | 25.07781 | 113.04449 | 33982 ft | 518 kts | 186° |
| 2026-05-06 03:59 | 25.02034 | 113.04304 | 33992 ft | 517 kts | 186° |
| 2026-05-06 03:59 | 24.94836 | 113.04122 | 33990 ft | 516 kts | 185° |
| 2026-05-06 04:00 | 24.87674 | 113.03941 | 33996 ft | 516 kts | 185° |
| 2026-05-06 04:00 | 24.80568 | 113.03762 | 34001 ft | 516 kts | 185° |
| 2026-05-06 04:01 | 24.73368 | 113.03581 | 33995 ft | 516 kts | 185° |
| 2026-05-06 04:01 | 24.66187 | 113.03401 | 34008 ft | 516 kts | 185° |
| 2026-05-06 04:02 | 24.59040 | 113.03222 | 34009 ft | 516 kts | 185° |
| 2026-05-06 04:02 | 24.51862 | 113.03042 | 34013 ft | 516 kts | 185° |
| 2026-05-06 04:03 | 24.45162 | 113.03344 | 34004 ft | 522 kts | 177° |
| 2026-05-06 04:03 | 24.38049 | 113.04969 | 33981 ft | 515 kts | 169° |
| 2026-05-06 04:04 | 24.35708 | 113.05642 | 33603 ft | 512 kts | 169° |
| 2026-05-06 04:04 | 24.32245 | 113.06628 | 32666 ft | 514 kts | 169° |
| 2026-05-06 04:04 | 24.28771 | 113.07599 | 31764 ft | 514 kts | 169° |
| 2026-05-06 04:04 | 24.25473 | 113.08502 | 30889 ft | 514 kts | 169° |
| 2026-05-06 04:05 | 24.22005 | 113.09441 | 30193 ft | 510 kts | 169° |
| 2026-05-06 04:05 | 24.18584 | 113.10366 | 29447 ft | 506 kts | 168° |
| 2026-05-06 04:05 | 24.15175 | 113.11288 | 28747 ft | 500 kts | 168° |
| 2026-05-06 04:05 | 24.11841 | 113.12190 | 28114 ft | 494 kts | 168° |
| 2026-05-06 04:06 | 24.08520 | 113.13087 | 27499 ft | 489 kts | 168° |
| 2026-05-06 04:06 | 24.05239 | 113.13973 | 26900 ft | 483 kts | 168° |
| 2026-05-06 04:06 | 24.02057 | 113.14829 | 26308 ft | 479 kts | 168° |
| 2026-05-06 04:06 | 23.98834 | 113.15688 | 25715 ft | 474 kts | 168° |
| 2026-05-06 04:07 | 23.95682 | 113.16524 | 25139 ft | 470 kts | 168° |
| 2026-05-06 04:07 | 23.92568 | 113.17348 | 24564 ft | 466 kts | 168° |
| 2026-05-06 04:07 | 23.89332 | 113.18205 | 23959 ft | 463 kts | 168° |
| 2026-05-06 04:07 | 23.86206 | 113.19034 | 23341 ft | 460 kts | 168° |
| 2026-05-06 04:08 | 23.83207 | 113.19829 | 22722 ft | 456 kts | 168° |
| 2026-05-06 04:08 | 23.80296 | 113.20602 | 22168 ft | 452 kts | 169° |
| 2026-05-06 04:08 | 23.77257 | 113.21408 | 21602 ft | 448 kts | 169° |
| 2026-05-06 04:08 | 23.74244 | 113.22206 | 21055 ft | 443 kts | 169° |
| 2026-05-06 04:09 | 23.71262 | 113.22995 | 20513 ft | 440 kts | 169° |
| 2026-05-06 04:09 | 23.68480 | 113.23724 | 20007 ft | 433 kts | 171° |
| 2026-05-06 04:09 | 23.65467 | 113.24024 | 19437 ft | 424 kts | 188° |
| 2026-05-06 04:09 | 23.64481 | 113.23877 | 19263 ft | 418 kts | 194° |
| 2026-05-06 04:10 | 23.61248 | 113.23097 | 18674 ft | 412 kts | 195° |
| 2026-05-06 04:10 | 23.58440 | 113.22454 | 18113 ft | 412 kts | 194° |
| 2026-05-06 04:10 | 23.55636 | 113.21858 | 17540 ft | 410 kts | 194° |
| 2026-05-06 04:10 | 23.52841 | 113.21285 | 16995 ft | 407 kts | 193° |
| 2026-05-06 04:11 | 23.50066 | 113.20721 | 16471 ft | 404 kts | 193° |
| 2026-05-06 04:11 | 23.47308 | 113.20145 | 15947 ft | 401 kts | 194° |
| 2026-05-06 04:11 | 23.44579 | 113.19565 | 15431 ft | 399 kts | 194° |
| 2026-05-06 04:11 | 23.41865 | 113.18989 | 15012 ft | 394 kts | 194° |
| 2026-05-06 04:12 | 23.39213 | 113.18430 | 14855 ft | 382 kts | 194° |
| 2026-05-06 04:12 | 23.36644 | 113.17889 | 14665 ft | 372 kts | 194° |
| 2026-05-06 04:12 | 23.34136 | 113.17361 | 14516 ft | 362 kts | 194° |
| 2026-05-06 04:12 | 23.31700 | 113.16849 | 14366 ft | 352 kts | 194° |
| 2026-05-06 04:13 | 23.29343 | 113.16353 | 14218 ft | 342 kts | 194° |
| 2026-05-06 04:13 | 23.27024 | 113.15863 | 14070 ft | 333 kts | 194° |
| 2026-05-06 04:13 | 23.24780 | 113.15390 | 13940 ft | 324 kts | 194° |
| 2026-05-06 04:13 | 23.22593 | 113.14930 | 13798 ft | 315 kts | 194° |
| 2026-05-06 04:14 | 23.20471 | 113.14483 | 13665 ft | 306 kts | 194° |
| 2026-05-06 04:14 | 23.18428 | 113.14009 | 13518 ft | 297 kts | 197° |
| 2026-05-06 04:14 | 23.16428 | 113.13463 | 13277 ft | 292 kts | 198° |
| 2026-05-06 04:14 | 23.14473 | 113.12923 | 12985 ft | 288 kts | 198° |
| 2026-05-06 04:15 | 23.12570 | 113.12402 | 12719 ft | 282 kts | 198° |
| 2026-05-06 04:15 | 23.10694 | 113.11895 | 12530 ft | 273 kts | 198° |
| 2026-05-06 04:15 | 23.08899 | 113.11415 | 12470 ft | 257 kts | 198° |
| 2026-05-06 04:15 | 23.07196 | 113.10961 | 12307 ft | 246 kts | 198° |
| 2026-05-06 04:16 | 23.05553 | 113.10520 | 11962 ft | 242 kts | 198° |
| 2026-05-06 04:16 | 23.03922 | 113.10081 | 11574 ft | 241 kts | 198° |
| 2026-05-06 04:16 | 23.02294 | 113.09644 | 11199 ft | 239 kts | 198° |
| 2026-05-06 04:16 | 23.01206 | 113.09352 | 10950 ft | 238 kts | 198° |
| 2026-05-06 04:17 | 22.99087 | 113.08785 | 10490 ft | 236 kts | 197° |
| 2026-05-06 04:17 | 22.97999 | 113.08560 | 10262 ft | 236 kts | 186° |
| 2026-05-06 04:17 | 22.96470 | 113.08902 | 9880 ft | 245 kts | 156° |
| 2026-05-06 04:17 | 22.95131 | 113.10273 | 9416 ft | 252 kts | 122° |
| 2026-05-06 04:18 | 22.94562 | 113.12056 | 9090 ft | 250 kts | 106° |
| 2026-05-06 04:18 | 22.94284 | 113.13300 | 8876 ft | 250 kts | 106° |
| 2026-05-06 04:18 | 22.93881 | 113.15106 | 8577 ft | 250 kts | 106° |
| 2026-05-06 04:18 | 22.93758 | 113.16974 | 8274 ft | 251 kts | 79° |
| 2026-05-06 04:19 | 22.94499 | 113.18661 | 7976 ft | 251 kts | 47° |
| 2026-05-06 04:19 | 22.95913 | 113.19729 | 7684 ft | 246 kts | 18° |
| 2026-05-06 04:19 | 22.97547 | 113.20227 | 7413 ft | 243 kts | 11° |
| 2026-05-06 04:19 | 22.99194 | 113.20652 | 7123 ft | 243 kts | 11° |
| 2026-05-06 04:20 | 23.00844 | 113.21080 | 6827 ft | 244 kts | 11° |
| 2026-05-06 04:20 | 23.02492 | 113.21514 | 6530 ft | 243 kts | 11° |
| 2026-05-06 04:20 | 23.04145 | 113.21953 | 6069 ft | 247 kts | 12° |
| 2026-05-06 04:20 | 23.05833 | 113.22403 | 5607 ft | 251 kts | 12° |
| 2026-05-06 04:21 | 23.07548 | 113.22864 | 5124 ft | 256 kts | 12° |
| 2026-05-06 04:21 | 23.09289 | 113.23331 | 4652 ft | 259 kts | 13° |
| 2026-05-06 04:21 | 23.11042 | 113.23801 | 4167 ft | 261 kts | 13° |
| 2026-05-06 04:21 | 23.12701 | 113.24248 | 3723 ft | 263 kts | 13° |
| 2026-05-06 04:22 | 23.14480 | 113.24726 | 3252 ft | 266 kts | 14° |
| 2026-05-06 04:22 | 23.16287 | 113.25210 | 2741 ft | 267 kts | 14° |
| 2026-05-06 04:22 | 23.18088 | 113.25695 | 2269 ft | 268 kts | 14° |
| 2026-05-06 04:23 | 23.21589 | 113.26634 | 1847 ft | 236 kts | 14° |
| 2026-05-06 04:23 | 23.23043 | 113.27026 | 1897 ft | 201 kts | 15° |
| 2026-05-06 04:23 | 23.24321 | 113.27369 | 1892 ft | 173 kts | 14° |
| 2026-05-06 04:23 | 23.25404 | 113.27661 | 1863 ft | 158 kts | 15° |
| 2026-05-06 04:24 | 23.26466 | 113.27948 | 1906 ft | 158 kts | 14° |
| 2026-05-06 04:24 | 23.27548 | 113.28239 | 1901 ft | 161 kts | 14° |
| 2026-05-06 04:24 | 23.28667 | 113.28541 | 1696 ft | 167 kts | 15° |
| 2026-05-06 04:24 | 23.29762 | 113.28835 | 1472 ft | 157 kts | 15° |
| 2026-05-06 04:25 | 23.30817 | 113.29119 | 1275 ft | 156 kts | 15° |
| 2026-05-06 04:25 | 23.31877 | 113.29406 | 1067 ft | 159 kts | 15° |
| 2026-05-06 04:25 | 23.32946 | 113.29692 | 883 ft | 156 kts | 15° |
| 2026-05-06 04:25 | 23.33986 | 113.29973 | 670 ft | 153 kts | 14° |
| 2026-05-06 04:26 | 23.35014 | 113.30225 | 455 ft | 151 kts | 14° |
| 2026-05-06 04:26 | 23.36030 | 113.30495 | 309 ft | 150 kts | 15° |
| 2026-05-06 04:26 | 23.37034 | 113.30790 | 113 ft | 150 kts | 15° |
| 2026-05-06 04:26 | 23.38030 | 113.31061 | 56 ft | 137 kts | 14° |
| 2026-05-06 04:27 | 23.38806 | 113.31269 | 57 ft | 93 kts | 14° |
| 2026-05-06 04:27 | 23.39320 | 113.31409 | 56 ft | 72 kts | 14° |
| 2026-05-06 04:27 | 23.39683 | 113.31506 | 58 ft | 33 kts | 14° |
| 2026-05-06 04:27 | 23.39899 | 113.31565 | 59 ft | 31 kts | 14° |
| 2026-05-06 04:28 | 23.40036 | 113.31607 | 55 ft | 16 kts | 35° |
| 2026-05-06 04:28 | 23.40054 | 113.31719 | 60 ft | 16 kts | 100° |
| 2026-05-06 04:28 | 23.40032 | 113.31821 | 56 ft | 0 kts | 104° |
| 2026-05-06 04:28 | 23.40031 | 113.31823 | 56 ft | 1 kts | 104° |
| 2026-05-06 04:29 | 23.40030 | 113.31829 | 56 ft | 1 kts | 104° |
| 2026-05-06 04:29 | 23.40027 | 113.31840 | 60 ft | 3 kts | 104° |
| 2026-05-06 04:29 | 23.40031 | 113.31876 | 56 ft | 7 kts | 62° |
| 2026-05-06 04:29 | 23.40087 | 113.31914 | 57 ft | 12 kts | 20° |
| 2026-05-06 04:30 | 23.40166 | 113.31943 | 55 ft | 10 kts | 34° |
| 2026-05-06 04:30 | 23.40188 | 113.32029 | 54 ft | 15 kts | 99° |
| 2026-05-06 04:30 | 23.40183 | 113.32056 | 59 ft | 0 kts | 103° |
| 2026-05-06 04:31 | 23.40181 | 113.32064 | 61 ft | 4 kts | 103° |
| 2026-05-06 04:31 | 23.40166 | 113.32105 | 58 ft | 6 kts | 121° |
| 2026-05-06 04:31 | 23.40148 | 113.32146 | 56 ft | 1 kts | 109° |
| 2026-05-06 04:31 | 23.40139 | 113.32174 | 59 ft | 7 kts | 105° |
| 2026-05-06 04:32 | 23.40132 | 113.32204 | 60 ft | 4 kts | 104° |
| 2026-05-06 04:32 | 23.40129 | 113.32217 | 55 ft | 1 kts | 104° |
| 2026-05-06 04:32 | 23.40127 | 113.32226 | 55 ft | 0 kts | 104° |
| 2026-05-06 04:32 | 23.40126 | 113.32233 | 56 ft | 0 kts | 104° |
| 2026-05-06 04:33 | 23.40125 | 113.32236 | 57 ft | 0 kts | 104° |